createdAt,value
2023-07-07T00:02:26.420Z,20.08
2023-07-07T00:04:53.862Z,20.08
2023-07-07T00:07:21.107Z,20.08
2023-07-07T00:09:48.740Z,20.10
2023-07-07T00:12:17.664Z,20.10
2023-07-07T00:14:45.576Z,20.09
2023-07-07T00:17:13.349Z,20.06
2023-07-07T00:19:40.648Z,20.04
2023-07-07T00:22:08.210Z,20.03
2023-07-07T00:24:36.048Z,20.04
2023-07-07T00:27:03.666Z,20.01
2023-07-07T00:29:32.333Z,19.94
2023-07-07T00:32:00.038Z,19.89
2023-07-07T00:34:30.402Z,19.84
2023-07-07T00:36:57.654Z,19.78
2023-07-07T00:39:24.906Z,19.76
2023-07-07T00:41:52.159Z,19.79
2023-07-07T00:44:20.128Z,19.83
2023-07-07T00:46:47.521Z,19.85
2023-07-07T00:49:17.920Z,19.87
2023-07-07T00:51:50.185Z,19.87
2023-07-07T00:54:20.309Z,19.87
2023-07-07T00:56:49.507Z,19.84
2023-07-07T00:59:38.248Z,19.80
2023-07-07T01:02:16.405Z,19.78
2023-07-07T01:04:47.211Z,19.77
2023-07-07T01:07:16.181Z,19.75
2023-07-07T01:09:43.844Z,19.73
2023-07-07T01:12:17.451Z,19.71
2023-07-07T01:14:47.880Z,19.73
2023-07-07T01:17:23.316Z,19.69
2023-07-07T01:20:11.047Z,19.68
2023-07-07T01:23:09.334Z,19.65
2023-07-07T01:25:38.221Z,19.61
2023-07-07T01:28:50.310Z,19.56
2023-07-07T01:31:44.252Z,19.54
2023-07-07T01:34:15.156Z,19.52
2023-07-07T01:36:42.492Z,19.52
2023-07-07T01:39:12.090Z,19.50
2023-07-07T01:42:03.200Z,19.46
2023-07-07T01:44:59.130Z,19.41
2023-07-07T01:47:38.192Z,19.33
2023-07-07T01:50:18.977Z,19.29
2023-07-07T01:53:08.489Z,19.23
2023-07-07T01:55:41.581Z,19.17
2023-07-07T01:58:10.114Z,19.14
2023-07-07T02:00:38.459Z,19.12
2023-07-07T02:03:09.692Z,19.09
2023-07-07T02:05:38.172Z,19.10
2023-07-07T02:08:05.969Z,19.09
2023-07-07T02:10:33.204Z,19.07
2023-07-07T02:13:00.552Z,19.04
2023-07-07T02:15:27.798Z,19.04
2023-07-07T02:17:57.263Z,19.05
2023-07-07T02:20:24.646Z,19.06
2023-07-07T02:22:52.137Z,19.05
2023-07-07T02:25:19.358Z,19.02
2023-07-07T02:27:46.609Z,19.00
2023-07-07T02:30:14.166Z,18.98
2023-07-07T02:32:41.710Z,18.97
2023-07-07T02:35:10.090Z,18.99
2023-07-07T02:37:39.936Z,19.02
2023-07-07T02:40:08.419Z,19.07
2023-07-07T02:42:38.116Z,19.08
2023-07-07T02:45:07.860Z,19.07
2023-07-07T02:47:35.009Z,19.06
2023-07-07T02:50:02.731Z,19.05
2023-07-07T02:52:31.381Z,19.08
2023-07-07T02:54:58.870Z,19.11
2023-07-07T02:57:26.129Z,19.08
2023-07-07T02:59:53.263Z,19.07
2023-07-07T03:02:20.760Z,19.07
2023-07-07T03:04:51.259Z,19.05
2023-07-07T03:07:19.008Z,19.02
2023-07-07T03:09:48.417Z,19.02
2023-07-07T03:12:17.309Z,19.06
2023-07-07T03:14:44.555Z,19.10
2023-07-07T03:17:12.524Z,19.10
2023-07-07T03:19:43.667Z,19.10
2023-07-07T03:22:18.622Z,19.07
2023-07-07T03:24:53.340Z,19.07
2023-07-07T03:27:39.330Z,19.07
2023-07-07T03:30:10.362Z,19.07
2023-07-07T03:32:50.667Z,19.09
2023-07-07T03:35:20.479Z,19.05
2023-07-07T03:37:47.609Z,19.06
2023-07-07T03:40:18.757Z,19.01
2023-07-07T03:42:45.958Z,18.99
2023-07-07T03:45:13.641Z,18.98
2023-07-07T03:47:41.327Z,18.96
2023-07-07T03:50:09.509Z,18.94
2023-07-07T03:52:37.265Z,18.94
2023-07-07T03:55:05.870Z,18.94
2023-07-07T03:57:33.134Z,18.91
2023-07-07T04:00:00.279Z,18.88
2023-07-07T04:02:28.682Z,18.92
2023-07-07T04:04:55.913Z,18.94
2023-07-07T04:07:23.107Z,18.95
2023-07-07T04:09:50.222Z,18.97
2023-07-07T04:12:20.682Z,18.98
2023-07-07T04:14:47.833Z,18.99
2023-07-07T04:17:14.973Z,19.01
2023-07-07T04:19:43.052Z,19.04
2023-07-07T04:22:10.295Z,19.03
2023-07-07T04:24:38.255Z,19.03
2023-07-07T04:27:07.120Z,19.01
2023-07-07T04:29:34.334Z,19.01
2023-07-07T04:32:01.841Z,19.01
2023-07-07T04:34:30.120Z,19.03
2023-07-07T04:36:57.324Z,19.05
2023-07-07T04:39:24.914Z,19.07
2023-07-07T04:41:52.643Z,19.06
2023-07-07T04:44:20.914Z,19.05
2023-07-07T04:46:48.152Z,19.05
2023-07-07T04:49:17.132Z,19.05
2023-07-07T04:51:44.246Z,19.05
2023-07-07T04:54:15.101Z,19.05
2023-07-07T04:56:43.183Z,19.05
2023-07-07T04:59:10.644Z,19.07
2023-07-07T05:01:38.180Z,19.11
2023-07-07T05:04:05.924Z,19.15
2023-07-07T05:06:34.653Z,19.17
2023-07-07T05:09:02.823Z,19.20
2023-07-07T05:11:31.220Z,19.24
2023-07-07T05:13:58.570Z,19.27
2023-07-07T05:16:32.561Z,19.34
2023-07-07T05:19:00.028Z,19.40
2023-07-07T05:21:28.280Z,19.46
2023-07-07T05:23:55.840Z,19.54
2023-07-07T05:26:23.912Z,19.62
2023-07-07T05:28:54.104Z,19.71
2023-07-07T05:31:21.873Z,19.78
2023-07-07T05:33:49.650Z,19.87
2023-07-07T05:36:16.819Z,19.96
2023-07-07T05:38:44.706Z,20.08
2023-07-07T05:41:12.161Z,20.22
2023-07-07T05:43:39.517Z,20.35
2023-07-07T05:46:13.826Z,20.48
2023-07-07T05:48:43.985Z,20.63
2023-07-07T05:51:15.454Z,20.78
2023-07-07T05:53:44.905Z,20.95
2023-07-07T05:56:19.746Z,21.15
2023-07-07T05:58:47.217Z,21.36
2023-07-07T06:01:15.436Z,21.57
2023-07-07T06:03:44.116Z,21.74
2023-07-07T06:06:11.612Z,21.92
2023-07-07T06:08:40.089Z,22.07
2023-07-07T06:11:08.141Z,22.22
2023-07-07T06:48:53.710Z,23.86
2023-07-07T06:51:22.769Z,23.96
2023-07-07T06:53:49.968Z,24.07
2023-07-07T06:56:17.184Z,24.18
2023-07-07T06:58:44.366Z,24.33
2023-07-07T07:01:14.060Z,24.47
2023-07-07T07:03:45.193Z,24.61
2023-07-07T07:06:13.337Z,24.69
2023-07-07T07:08:40.523Z,24.80
2023-07-07T07:11:08.172Z,24.85
2023-07-07T07:13:35.339Z,24.87
2023-07-07T07:16:02.493Z,24.85
2023-07-07T07:18:29.666Z,24.83
2023-07-07T07:20:57.182Z,24.83
2023-07-07T07:23:24.931Z,24.84
2023-07-07T07:25:52.162Z,24.89
2023-07-07T07:28:19.238Z,24.88
2023-07-07T07:30:46.368Z,24.84
2023-07-07T07:33:21.174Z,24.79
2023-07-07T07:35:48.658Z,24.71
2023-07-07T07:38:17.079Z,24.70
2023-07-07T07:40:45.135Z,24.70
2023-07-07T07:43:12.302Z,24.69
2023-07-07T07:45:39.583Z,24.81
2023-07-07T07:48:07.388Z,24.97
2023-07-07T07:50:34.896Z,25.09
2023-07-07T07:53:02.090Z,25.14
2023-07-07T07:55:30.982Z,25.17
2023-07-07T07:57:58.185Z,25.12
2023-07-07T08:00:25.323Z,24.97
2023-07-07T08:02:52.871Z,24.85
2023-07-07T08:05:20.102Z,24.75
2023-07-07T08:07:47.300Z,24.73
2023-07-07T08:10:14.677Z,24.71
2023-07-07T08:12:42.254Z,24.64
2023-07-07T08:15:11.458Z,24.61
2023-07-07T08:17:38.649Z,24.64
2023-07-07T08:20:06.778Z,24.64
2023-07-07T08:22:33.991Z,24.57
2023-07-07T08:25:01.243Z,24.50
2023-07-07T08:30:01.201Z,24.42
2023-07-07T08:32:28.511Z,24.39
2023-07-07T08:34:55.894Z,24.39
2023-07-07T08:37:25.998Z,24.39
2023-07-07T08:39:53.393Z,24.41
2023-07-07T08:42:34.657Z,24.41
2023-07-07T08:45:05.162Z,24.45
2023-07-07T08:47:47.539Z,24.49
2023-07-07T08:50:29.705Z,24.48
2023-07-07T08:53:11.924Z,24.44
2023-07-07T08:55:55.007Z,24.41
2023-07-07T08:58:29.568Z,24.39
2023-07-07T09:01:23.266Z,24.43
2023-07-07T09:03:58.044Z,24.45
2023-07-07T09:06:48.279Z,24.46
2023-07-07T09:09:33.633Z,24.54
2023-07-07T09:12:26.076Z,24.61
2023-07-07T09:14:54.220Z,24.70
2023-07-07T09:17:25.626Z,24.75
2023-07-07T09:19:52.894Z,24.81
2023-07-07T09:22:40.504Z,24.88
2023-07-07T09:25:21.474Z,24.89
2023-07-07T09:28:11.411Z,24.95
2023-07-07T09:31:06.544Z,25.00
2023-07-07T09:33:34.234Z,25.00
2023-07-07T09:36:07.331Z,25.08
2023-07-07T09:38:56.158Z,25.24
2023-07-07T09:41:43.430Z,25.40
2023-07-07T09:44:27.209Z,25.50
2023-07-07T09:47:26.189Z,25.56
2023-07-07T09:50:01.950Z,25.56
2023-07-07T09:52:41.537Z,25.60
2023-07-07T09:55:32.610Z,25.65
2023-07-07T09:58:18.002Z,25.75
2023-07-07T10:00:52.305Z,25.85
2023-07-07T10:03:42.310Z,25.92
2023-07-07T10:06:26.162Z,26.06
2023-07-07T10:08:53.417Z,26.19
2023-07-07T10:12:10.161Z,26.29
2023-07-07T10:14:30.448Z,26.38
2023-07-07T10:17:09.516Z,26.44
2023-07-07T10:20:01.222Z,26.44
2023-07-07T10:22:29.711Z,26.35
2023-07-07T10:24:56.978Z,26.29
2023-07-07T10:27:26.331Z,26.31
2023-07-07T10:29:57.719Z,26.35
2023-07-07T10:32:28.799Z,26.45
2023-07-07T10:34:58.889Z,26.52
2023-07-07T10:37:29.605Z,26.65
2023-07-07T10:39:57.995Z,26.75
2023-07-07T10:46:20.182Z,26.84
2023-07-07T10:48:47.922Z,26.89
2023-07-07T10:51:21.236Z,26.97
2023-07-07T10:54:14.507Z,27.02
2023-07-07T10:56:46.547Z,27.13
2023-07-07T10:59:24.483Z,27.13
2023-07-07T11:01:55.929Z,27.09
2023-07-07T11:04:43.916Z,27.11
2023-07-07T11:07:21.359Z,27.17
2023-07-07T11:09:54.635Z,27.21
2023-07-07T11:12:43.389Z,27.27
2023-07-07T11:15:23.128Z,27.28
2023-07-07T11:18:15.385Z,27.22
2023-07-07T11:21:23.965Z,27.24
2023-07-07T11:24:01.150Z,27.28
2023-07-07T11:26:34.763Z,27.26
2023-07-07T11:29:28.903Z,27.24
2023-07-07T11:31:58.924Z,27.28
2023-07-07T11:34:45.815Z,27.37
2023-07-07T11:37:30.721Z,27.49
2023-07-07T11:40:19.417Z,27.59
2023-07-07T11:43:08.889Z,27.63
2023-07-07T11:45:59.811Z,27.59
2023-07-07T11:48:34.049Z,27.56
2023-07-07T11:51:48.559Z,27.58
2023-07-07T11:54:35.726Z,27.60
2023-07-07T11:57:42.211Z,27.60
2023-07-07T12:00:32.791Z,27.50
2023-07-07T12:03:09.164Z,27.50
2023-07-07T12:05:37.471Z,27.54
2023-07-07T12:08:18.255Z,27.60
2023-07-07T12:10:53.432Z,27.66
2023-07-07T12:13:26.792Z,27.76
2023-07-07T12:16:19.061Z,27.84
2023-07-07T12:18:47.809Z,27.90
2023-07-07T12:21:23.974Z,27.91
2023-07-07T12:24:08.356Z,27.97
2023-07-07T12:26:37.606Z,27.98
2023-07-07T12:29:06.715Z,27.85
2023-07-07T12:31:34.226Z,27.82
2023-07-07T12:34:36.133Z,27.86
2023-07-07T12:37:03.459Z,27.90
2023-07-07T12:39:33.530Z,27.94
2023-07-07T12:42:01.216Z,28.01
2023-07-07T12:44:28.483Z,28.05
2023-07-07T12:46:55.667Z,28.04
2023-07-07T12:49:27.236Z,28.00
2023-07-07T12:51:59.750Z,27.98
2023-07-07T12:54:38.868Z,28.01
2023-07-07T12:57:18.328Z,28.03
2023-07-07T12:59:45.534Z,28.03
2023-07-07T13:02:23.494Z,28.01
2023-07-07T13:05:06.662Z,28.03
2023-07-07T13:07:34.761Z,28.04
2023-07-07T13:10:10.249Z,28.03
2023-07-07T13:12:50.297Z,28.06
2023-07-07T13:15:21.738Z,28.12
2023-07-07T13:17:50.997Z,28.16
2023-07-07T13:20:19.527Z,28.17
2023-07-07T13:22:56.279Z,28.17
2023-07-07T13:25:30.599Z,28.18
2023-07-07T13:27:59.141Z,28.22
2023-07-07T13:30:28.753Z,28.10
2023-07-07T13:32:59.499Z,28.02
2023-07-07T13:35:27.001Z,27.96
2023-07-07T13:37:59.723Z,27.93
2023-07-07T13:40:28.945Z,27.92
2023-07-07T13:42:56.140Z,27.98
2023-07-07T13:45:23.527Z,28.05
2023-07-07T13:47:53.443Z,28.01
2023-07-07T13:50:26.611Z,27.91
2023-07-07T13:53:02.232Z,27.86
2023-07-07T13:55:33.887Z,27.83
2023-07-07T13:58:01.455Z,27.89
2023-07-07T14:00:36.606Z,27.92
2023-07-07T14:03:05.729Z,27.95
2023-07-07T14:05:36.056Z,28.01
2023-07-07T14:08:25.204Z,28.07
2023-07-07T14:10:57.854Z,28.14
2023-07-07T14:13:32.412Z,28.22
2023-07-07T14:16:37.427Z,28.19
2023-07-07T14:19:17.892Z,28.13
2023-07-07T14:21:45.106Z,28.10
2023-07-07T14:24:14.031Z,28.09
2023-07-07T14:26:42.139Z,28.10
2023-07-07T14:29:09.420Z,27.98
2023-07-07T14:31:36.694Z,27.85
2023-07-07T14:34:05.177Z,27.68
2023-07-07T14:36:38.108Z,27.55
2023-07-07T14:39:17.219Z,27.47
2023-07-07T14:41:46.122Z,27.41
2023-07-07T14:44:40.612Z,27.29
2023-07-07T14:47:09.771Z,27.19
2023-07-07T14:49:36.924Z,27.16
2023-07-07T14:52:06.168Z,27.21
2023-07-07T14:54:33.290Z,27.29
2023-07-07T14:57:09.186Z,27.35
2023-07-07T14:59:37.370Z,27.44
2023-07-07T15:02:28.859Z,27.45
2023-07-07T15:04:56.148Z,27.47
2023-07-07T15:07:29.122Z,27.52
2023-07-07T15:10:03.198Z,27.55
2023-07-07T15:12:32.007Z,27.52
2023-07-07T15:14:59.602Z,27.51
2023-07-07T15:17:26.955Z,27.51
2023-07-07T15:19:54.449Z,27.50
2023-07-07T15:22:21.658Z,27.48
2023-07-07T15:24:51.103Z,27.47
2023-07-07T15:27:18.377Z,27.47
2023-07-07T15:29:45.508Z,27.47
2023-07-07T15:32:13.824Z,27.45
2023-07-07T15:34:41.114Z,27.43
2023-07-07T15:37:14.460Z,27.38
2023-07-07T15:39:41.658Z,27.38
2023-07-07T15:42:12.951Z,27.35
2023-07-07T15:44:40.336Z,27.28
2023-07-07T15:47:21.483Z,27.23
2023-07-07T15:49:51.710Z,27.17
2023-07-07T15:52:18.962Z,27.08
2023-07-07T15:54:46.112Z,27.04
2023-07-07T15:57:14.053Z,27.06
2023-07-07T15:59:41.973Z,27.08
2023-07-07T16:02:19.922Z,27.05
2023-07-07T16:04:47.306Z,27.01
2023-07-07T16:07:17.674Z,26.93
2023-07-07T16:09:44.836Z,26.86
2023-07-07T16:12:20.801Z,26.80
2023-07-07T16:14:49.626Z,26.80
2023-07-07T16:17:19.186Z,26.80
2023-07-07T16:19:46.354Z,26.79
2023-07-07T16:22:15.361Z,26.74
2023-07-07T16:24:42.526Z,26.70
2023-07-07T16:27:17.072Z,26.66
2023-07-07T16:29:44.662Z,26.62
2023-07-07T16:32:13.502Z,26.57
2023-07-07T16:34:42.069Z,26.54
2023-07-07T16:37:18.301Z,26.50
2023-07-07T16:39:47.218Z,26.48
2023-07-07T16:42:14.810Z,26.44
2023-07-07T16:44:42.389Z,26.40
2023-07-07T16:47:13.005Z,26.34
2023-07-07T16:49:40.356Z,26.27
2023-07-07T16:52:08.270Z,26.21
2023-07-07T16:54:35.610Z,26.15
2023-07-07T16:57:03.241Z,26.10
2023-07-07T16:59:30.337Z,26.05
2023-07-07T17:01:58.363Z,26.01
2023-07-07T17:04:27.395Z,25.97
2023-07-07T17:06:54.561Z,25.92
2023-07-07T17:09:23.328Z,25.86
2023-07-07T17:11:50.550Z,25.84
2023-07-07T17:14:18.518Z,25.79
2023-07-07T17:16:45.930Z,25.75
2023-07-07T17:19:18.884Z,25.67
2023-07-07T17:21:46.590Z,25.62
2023-07-07T17:24:14.288Z,25.56
2023-07-07T17:26:41.509Z,25.49
2023-07-07T17:29:16.215Z,25.38
2023-07-07T17:31:44.028Z,25.27
2023-07-07T17:34:11.130Z,25.12
2023-07-07T17:36:38.473Z,24.96
2023-07-07T17:39:10.464Z,24.84
2023-07-07T17:41:37.643Z,24.70
2023-07-07T17:44:06.382Z,24.58
2023-07-07T17:46:34.596Z,24.48
2023-07-07T17:49:12.741Z,24.41
2023-07-07T17:51:41.931Z,24.32
2023-07-07T17:54:09.246Z,24.24
2023-07-07T17:56:36.407Z,24.11
2023-07-07T17:59:07.917Z,24.04
2023-07-07T18:01:35.612Z,23.94
2023-07-07T18:04:03.182Z,23.79
2023-07-07T18:06:30.944Z,23.68
2023-07-07T18:08:58.982Z,23.58
2023-07-07T18:11:31.980Z,23.50
2023-07-07T18:13:59.324Z,23.42
2023-07-07T18:16:35.729Z,23.35
2023-07-07T18:19:12.833Z,23.31
2023-07-07T18:21:56.402Z,23.23
2023-07-07T18:24:26.696Z,23.14
2023-07-07T18:26:56.411Z,23.06
2023-07-07T18:29:24.010Z,23.01
2023-07-07T18:31:54.490Z,22.97
2023-07-07T18:34:22.765Z,22.91
2023-07-07T18:36:50.246Z,22.79
2023-07-07T18:39:17.394Z,22.72
2023-07-07T18:41:45.234Z,22.65
2023-07-07T18:44:12.641Z,22.52
2023-07-07T18:46:40.247Z,22.41
2023-07-07T18:49:13.834Z,22.34
2023-07-07T18:51:44.258Z,22.29
2023-07-07T18:54:12.901Z,22.19
2023-07-07T18:56:40.280Z,22.11
2023-07-07T18:59:14.908Z,22.06
2023-07-07T19:01:43.208Z,22.02
2023-07-07T19:04:10.783Z,21.97
2023-07-07T19:06:39.153Z,21.90
2023-07-07T19:09:24.297Z,21.86
2023-07-07T19:11:57.035Z,21.80
2023-07-07T19:14:24.446Z,21.69
2023-07-07T19:16:52.157Z,21.58
2023-07-07T19:19:24.294Z,21.49
2023-07-07T19:21:51.932Z,21.42
2023-07-07T19:24:20.792Z,21.33
2023-07-07T19:26:55.832Z,21.26
2023-07-07T19:29:23.809Z,21.20
2023-07-07T19:31:51.848Z,21.12
2023-07-07T19:34:18.901Z,21.06
2023-07-07T19:36:47.490Z,20.99
2023-07-07T19:39:18.936Z,20.91
2023-07-07T19:41:46.661Z,20.82
2023-07-07T19:44:13.880Z,20.75
2023-07-07T19:46:41.217Z,20.69
2023-07-07T19:49:18.166Z,20.63
2023-07-07T19:51:45.819Z,20.56
2023-07-07T19:54:13.329Z,20.51
2023-07-07T19:56:41.862Z,20.47
2023-07-07T19:59:17.012Z,20.43
2023-07-07T20:01:44.721Z,20.41
2023-07-07T20:04:12.118Z,20.37
2023-07-07T20:06:43.929Z,20.35
2023-07-07T20:09:18.645Z,20.28
2023-07-07T20:11:46.177Z,20.21
2023-07-07T20:14:13.783Z,20.18
2023-07-07T20:16:51.551Z,20.16
2023-07-07T20:19:20.290Z,20.11
2023-07-07T20:21:47.928Z,20.07
2023-07-07T20:24:19.316Z,20.02
2023-07-07T20:26:50.442Z,19.98
2023-07-07T20:29:21.167Z,19.93
2023-07-07T20:31:50.296Z,19.88
2023-07-07T20:34:20.378Z,19.82
2023-07-07T20:36:48.973Z,19.75
2023-07-07T20:39:18.383Z,19.72
2023-07-07T20:41:46.168Z,19.73
2023-07-07T20:44:13.537Z,19.71
2023-07-07T20:46:42.597Z,19.71
2023-07-07T20:49:15.602Z,19.68
2023-07-07T20:51:42.884Z,19.68
2023-07-07T20:54:10.410Z,19.69
2023-07-07T20:56:37.446Z,19.65
2023-07-07T20:59:25.027Z,19.59
2023-07-07T21:01:57.202Z,19.55
2023-07-07T21:04:25.699Z,19.52
2023-07-07T21:06:53.148Z,19.53
2023-07-07T21:09:20.317Z,19.53
2023-07-07T21:11:47.417Z,19.52
2023-07-07T21:14:14.468Z,19.52
2023-07-07T21:16:44.881Z,19.49
2023-07-07T21:19:13.091Z,19.43
2023-07-07T21:21:41.163Z,19.37
2023-07-07T21:24:08.396Z,19.35
2023-07-07T21:26:35.549Z,19.31
2023-07-07T21:29:02.570Z,19.28
2023-07-07T21:31:31.640Z,19.24
2023-07-07T21:33:58.961Z,19.20
2023-07-07T21:36:29.635Z,19.18
2023-07-07T21:38:57.124Z,19.13
2023-07-07T21:41:31.571Z,19.07
2023-07-07T21:44:06.182Z,19.01
2023-07-07T21:46:35.780Z,18.96
2023-07-07T21:49:02.872Z,18.83
2023-07-07T21:51:29.918Z,18.74
2023-07-07T21:53:57.897Z,18.69
2023-07-07T21:56:25.326Z,18.68
2023-07-07T21:58:52.355Z,18.65
2023-07-07T22:01:21.626Z,18.57
2023-07-07T22:03:53.175Z,18.50
2023-07-07T22:06:21.374Z,18.44
2023-07-07T22:08:48.841Z,18.42
2023-07-07T22:11:17.424Z,18.41
2023-07-07T22:13:45.054Z,18.40
2023-07-07T22:16:13.456Z,18.36
2023-07-07T22:18:50.194Z,18.32
2023-07-07T22:21:22.757Z,18.31
2023-07-07T22:23:50.023Z,18.27
2023-07-07T22:26:24.691Z,18.26
2023-07-07T22:28:54.816Z,18.25
2023-07-07T22:31:21.838Z,18.22
2023-07-07T22:33:50.298Z,18.18
2023-07-07T22:36:22.232Z,18.16
2023-07-07T22:38:49.690Z,18.13
2023-07-07T22:41:18.917Z,18.10
2023-07-07T22:43:46.031Z,18.05
2023-07-07T22:46:24.860Z,17.99
2023-07-07T22:48:52.045Z,17.95
2023-07-07T22:51:19.933Z,17.90
2023-07-07T22:53:47.352Z,17.84
2023-07-07T22:56:32.199Z,17.80
2023-07-07T22:59:00.150Z,17.76
2023-07-07T23:01:28.179Z,17.70
2023-07-07T23:03:56.951Z,17.65
2023-07-07T23:06:24.054Z,17.58
2023-07-07T23:08:58.967Z,17.55
2023-07-07T23:11:26.108Z,17.55
2023-07-07T23:13:53.669Z,17.53
2023-07-07T23:16:21.192Z,17.51
2023-07-07T23:18:48.501Z,17.48
2023-07-07T23:21:16.726Z,17.44
2023-07-07T23:23:43.784Z,17.43
2023-07-07T23:26:28.646Z,17.38
2023-07-07T23:28:56.552Z,17.33
2023-07-07T23:31:29.022Z,17.27
2023-07-07T23:33:57.348Z,17.22
2023-07-07T23:36:32.798Z,17.20
2023-07-07T23:39:01.157Z,17.17
2023-07-07T23:41:29.349Z,17.10
2023-07-07T23:43:56.710Z,17.03
2023-07-07T23:46:23.814Z,17.01
2023-07-07T23:48:50.972Z,17.02
2023-07-07T23:51:18.097Z,17.03
2023-07-07T23:53:47.582Z,17.03
2023-07-07T23:56:24.175Z,17.02
2023-07-07T23:58:51.430Z,17.01
